Terminal Aerodrome Forecast
Issued by NWS Blacksburg, VA

Current Version | Previous Version | Graphics & Text | Print | Product List | Glossary On
Versions: 1 2 3 4 5 6 7 8 9 10 11 12 13 14
000
FTUS41 KRNK 240521
TAFBLF
TAF
KBLF 240521Z 2406/2506 VRB03KT P6SM SCT050
     FM240900 12003KT P6SM SCT035 BKN140
     FM241700 24006KT P6SM BKN040 BKN120
     FM250000 20005KT P6SM SCT100 BKN250=

USA.gov is the U.S. government's official web portal to all federal, state and local government web resources and services.